createdAt,value
2019-05-28T00:01:47.651Z,17.60
2019-05-28T00:04:14.926Z,17.50
2019-05-28T00:06:41.492Z,17.40
2019-05-28T00:15:13.465Z,17.60
2019-05-28T00:17:44.250Z,17.40
2019-05-28T00:23:41.859Z,17.30
2019-05-28T00:26:17.983Z,17.50
2019-05-28T00:29:04.956Z,17.10
2019-05-28T00:31:40.720Z,17.10
2019-05-28T00:34:15.858Z,17.20
2019-05-28T00:37:08.490Z,17.20
2019-05-28T00:39:38.726Z,17.20
2019-05-28T00:42:13.794Z,17.30
2019-05-28T00:45:04.942Z,17.30
2019-05-28T00:47:50.095Z,17.20
2019-05-28T00:50:23.544Z,17.20
2019-05-28T00:53:05.892Z,17.30
2019-05-28T00:55:35.865Z,17.30
2019-05-28T00:58:06.847Z,17.30
2019-05-28T01:00:57.199Z,17.20
2019-05-28T01:03:24.040Z,17.30
2019-05-28T01:05:52.837Z,17.20
2019-05-28T01:08:20.346Z,17.20
2019-05-28T01:10:50.071Z,17.20
2019-05-28T01:13:23.499Z,17.30
2019-05-28T01:15:48.919Z,17.10
2019-05-28T01:18:16.263Z,17.20
2019-05-28T01:20:43.198Z,17.20
2019-05-28T01:23:12.342Z,17.30
2019-05-28T01:25:46.418Z,16.80
2019-05-28T01:28:19.145Z,18.40
2019-05-28T01:30:54.781Z,16.90
2019-05-28T01:36:23.960Z,16.90
2019-05-28T01:38:59.901Z,17.00
2019-05-28T01:41:56.624Z,17.20
2019-05-28T01:44:51.005Z,16.80
2019-05-28T01:50:51.951Z,16.70
2019-05-28T01:53:37.057Z,16.50
2019-05-28T01:59:42.569Z,16.60
2019-05-28T02:02:18.030Z,16.70
2019-05-28T02:04:47.014Z,16.90
2019-05-28T02:07:38.220Z,17.10
2019-05-28T02:10:10.223Z,17.10
2019-05-28T02:12:49.284Z,17.20
2019-05-28T02:15:36.651Z,17.20
2019-05-28T02:18:12.327Z,17.40
2019-05-28T02:21:04.243Z,17.50
2019-05-28T02:23:57.236Z,17.50
2019-05-28T02:26:59.039Z,17.60
2019-05-28T02:29:44.787Z,17.20
2019-05-28T02:32:14.265Z,17.00
2019-05-28T02:34:43.763Z,17.00
2019-05-28T02:37:10.636Z,17.00
2019-05-28T02:39:43.173Z,16.90
2019-05-28T02:42:10.456Z,16.80
2019-05-28T02:44:40.511Z,16.80
2019-05-28T02:47:11.513Z,17.00
2019-05-28T02:49:38.373Z,17.10
2019-05-28T02:52:06.492Z,17.00
2019-05-28T02:54:33.173Z,17.10
2019-05-28T02:57:00.507Z,17.20
2019-05-28T02:59:32.520Z,17.00
2019-05-28T03:02:03.073Z,17.10
2019-05-28T03:04:38.340Z,17.10
2019-05-28T03:07:07.868Z,17.20
2019-05-28T03:09:38.298Z,17.10
2019-05-28T03:12:05.254Z,17.20
2019-05-28T03:14:32.254Z,17.20
2019-05-28T03:17:03.020Z,17.20
2019-05-28T03:19:36.340Z,17.20
2019-05-28T03:22:06.852Z,17.20
2019-05-28T03:24:35.482Z,17.20
2019-05-28T03:27:04.823Z,17.10
2019-05-28T03:29:33.119Z,17.20
2019-05-28T03:32:07.609Z,17.20
2019-05-28T03:34:33.519Z,17.10
2019-05-28T03:37:02.229Z,17.10
2019-05-28T03:39:33.624Z,17.10
2019-05-28T03:42:01.753Z,17.20
2019-05-28T03:44:28.758Z,17.20
2019-05-28T03:47:05.408Z,17.20
2019-05-28T03:49:34.607Z,17.10
2019-05-28T03:52:01.653Z,16.90
2019-05-28T03:54:31.363Z,16.60
2019-05-28T03:56:58.525Z,16.30
2019-05-28T03:59:27.649Z,16.30
2019-05-28T04:02:01.212Z,16.10
2019-05-28T04:04:28.056Z,16.40
2019-05-28T04:06:58.611Z,16.20
2019-05-28T04:09:25.598Z,16.60
2019-05-28T04:11:52.362Z,16.60
2019-05-28T04:14:19.144Z,16.60
2019-05-28T04:16:45.896Z,16.80
2019-05-28T04:19:12.742Z,17.00
2019-05-28T04:21:39.580Z,17.00
2019-05-28T04:24:06.506Z,17.00
2019-05-28T04:26:33.385Z,17.00
2019-05-28T04:29:00.382Z,17.00
2019-05-28T04:31:27.427Z,16.90
2019-05-28T04:33:58.185Z,16.90
2019-05-28T04:36:24.710Z,17.00
2019-05-28T04:38:51.994Z,17.00
2019-05-28T04:41:19.763Z,16.90
2019-05-28T04:43:47.996Z,16.60
2019-05-28T04:46:20.645Z,16.70
2019-05-28T04:48:48.133Z,16.80
2019-05-28T04:51:19.054Z,16.40
2019-05-28T04:53:46.081Z,16.70
2019-05-28T04:56:12.692Z,16.70
2019-05-28T04:58:39.335Z,16.80
2019-05-28T05:01:06.401Z,16.60
2019-05-28T05:03:33.665Z,16.50
2019-05-28T05:06:00.447Z,16.70
2019-05-28T05:08:27.433Z,16.60
2019-05-28T05:10:56.852Z,16.70
2019-05-28T05:13:23.818Z,16.90
2019-05-28T05:15:52.638Z,16.60
2019-05-28T05:18:19.821Z,16.60
2019-05-28T05:21:05.283Z,16.80
2019-05-28T05:23:34.432Z,16.80
2019-05-28T05:26:04.303Z,16.80
2019-05-28T05:28:31.249Z,17.00
2019-05-28T05:30:59.046Z,16.90
2019-05-28T05:33:56.267Z,17.10
2019-05-28T05:36:14.386Z,17.20
2019-05-28T05:38:41.222Z,17.30
2019-05-28T05:41:08.594Z,17.20
2019-05-28T05:43:36.817Z,17.30
2019-05-28T05:46:03.695Z,17.30
2019-05-28T05:48:30.453Z,17.20
2019-05-28T05:50:57.668Z,17.20
2019-05-28T05:53:24.550Z,17.20
2019-05-28T05:55:51.407Z,17.40
2019-05-28T05:58:18.117Z,17.40
2019-05-28T06:00:46.097Z,17.30
2019-05-28T06:03:16.212Z,17.30
2019-05-28T06:05:44.346Z,17.50
2019-05-28T06:08:13.194Z,17.30
2019-05-28T06:10:40.245Z,17.10
2019-05-28T06:13:07.001Z,17.00
2019-05-28T06:15:34.203Z,17.10
2019-05-28T06:18:01.147Z,17.10
2019-05-28T06:20:28.563Z,17.10
2019-05-28T06:22:55.813Z,17.30
2019-05-28T06:25:22.951Z,17.00
2019-05-28T06:30:37.221Z,17.10
2019-05-28T06:33:04.369Z,17.20
2019-05-28T06:35:31.365Z,17.10
2019-05-28T06:37:58.046Z,17.10
2019-05-28T06:40:25.219Z,17.20
2019-05-28T06:42:52.202Z,17.30
2019-05-28T06:45:19.444Z,17.40
2019-05-28T06:47:46.641Z,17.40
2019-05-28T06:50:15.611Z,17.60
2019-05-28T06:52:42.688Z,17.60
2019-05-28T06:55:10.795Z,17.60
2019-05-28T06:57:39.682Z,17.80
2019-05-28T07:00:08.431Z,17.70
2019-05-28T07:02:35.432Z,17.50
2019-05-28T07:05:06.702Z,17.60
2019-05-28T07:07:33.808Z,17.70
2019-05-28T07:10:00.836Z,17.70
2019-05-28T07:12:27.816Z,17.60
2019-05-28T07:14:54.815Z,17.60
2019-05-28T07:17:21.778Z,17.70
2019-05-28T07:19:48.777Z,17.90
2019-05-28T07:22:15.701Z,18.00
2019-05-28T07:24:42.481Z,18.10
2019-05-28T07:27:10.205Z,18.20
2019-05-28T07:29:37.169Z,18.40
2019-05-28T07:32:03.883Z,18.50
2019-05-28T07:34:31.679Z,18.70
2019-05-28T07:36:58.674Z,18.70
2019-05-28T07:39:26.433Z,18.50
2019-05-28T07:41:53.025Z,18.40
2019-05-28T07:44:19.821Z,18.50
2019-05-28T07:46:46.534Z,18.40
2019-05-28T07:49:13.071Z,18.40
2019-05-28T07:51:40.033Z,18.20
2019-05-28T07:54:07.081Z,18.00
2019-05-28T07:56:33.866Z,17.90
2019-05-28T07:59:00.866Z,17.80
2019-05-28T08:01:27.827Z,17.90
2019-05-28T08:03:54.758Z,17.90
2019-05-28T08:06:22.440Z,17.70
2019-05-28T08:08:49.933Z,17.50
2019-05-28T08:11:16.922Z,17.50
2019-05-28T08:13:43.908Z,17.40
2019-05-28T08:16:18.002Z,17.30
2019-05-28T08:18:39.702Z,17.20
2019-05-28T08:21:08.543Z,17.20
2019-05-28T08:23:38.415Z,17.20
2019-05-28T08:26:05.380Z,17.60
2019-05-28T08:28:33.665Z,17.20
2019-05-28T08:31:14.688Z,17.40
2019-05-28T08:33:29.771Z,17.50
2019-05-28T08:35:59.704Z,17.50
2019-05-28T08:38:26.945Z,17.50
2019-05-28T08:40:53.835Z,17.60
2019-05-28T08:43:21.137Z,17.70
2019-05-28T08:45:47.977Z,17.60
2019-05-28T08:48:15.437Z,17.40
2019-05-28T08:50:42.514Z,17.10
2019-05-28T08:53:09.643Z,17.10
2019-05-28T08:55:36.789Z,17.00
2019-05-28T08:58:05.020Z,17.00
2019-05-28T09:00:58.515Z,17.10
2019-05-28T09:03:38.080Z,17.20
2019-05-28T09:06:05.161Z,17.30
2019-05-28T09:08:39.147Z,17.40
2019-05-28T09:11:03.131Z,17.40
2019-05-28T09:13:31.288Z,17.60
2019-05-28T09:15:58.495Z,17.70
2019-05-28T09:18:25.530Z,17.70
2019-05-28T09:20:53.856Z,17.90
2019-05-28T09:23:21.116Z,17.80
2019-05-28T09:25:48.389Z,17.00
2019-05-28T09:28:29.378Z,16.90
2019-05-28T09:30:44.401Z,16.20
2019-05-28T09:33:11.488Z,16.00
2019-05-28T09:35:44.760Z,16.10
2019-05-28T09:38:07.226Z,16.10
2019-05-28T09:40:49.264Z,16.10
2019-05-28T09:43:03.294Z,15.90
2019-05-28T09:45:30.266Z,15.70
2019-05-28T09:47:57.208Z,15.70
2019-05-28T09:50:31.126Z,15.80
2019-05-28T09:52:55.500Z,15.80
2019-05-28T09:55:23.147Z,15.80
2019-05-28T09:57:49.925Z,15.90
2019-05-28T10:00:22.889Z,15.90
2019-05-28T10:02:50.600Z,16.00
2019-05-28T10:05:20.771Z,16.00
2019-05-28T10:07:49.308Z,16.00
2019-05-28T10:10:16.859Z,16.00
2019-05-28T10:12:44.923Z,16.00
2019-05-28T10:18:01.965Z,16.10
2019-05-28T10:20:32.155Z,16.20
2019-05-28T10:22:59.184Z,16.30
2019-05-28T10:25:26.083Z,16.30
2019-05-28T10:28:00.813Z,16.30
2019-05-28T10:30:25.051Z,16.70
2019-05-28T10:32:51.861Z,17.60
2019-05-28T10:35:20.663Z,18.50
2019-05-28T10:37:47.451Z,18.90
2019-05-28T10:40:14.499Z,19.30
2019-05-28T10:42:41.085Z,19.50
2019-05-28T10:45:10.284Z,20.20
2019-05-28T10:47:37.083Z,20.90
2019-05-28T10:50:05.657Z,20.90
2019-05-28T10:52:32.311Z,20.90
2019-05-28T10:55:02.455Z,21.00
2019-05-28T10:57:27.131Z,21.30
2019-05-28T10:59:53.928Z,21.40
2019-05-28T11:02:22.284Z,21.60
2019-05-28T11:04:48.853Z,21.60
2019-05-28T11:07:15.501Z,22.40
2019-05-28T11:09:41.984Z,23.50
2019-05-28T11:12:09.676Z,24.60
2019-05-28T11:14:36.119Z,25.60
2019-05-28T11:17:03.259Z,26.10
2019-05-28T11:19:29.739Z,26.50
2019-05-28T11:21:56.204Z,25.80
2019-05-28T11:24:22.709Z,25.40
2019-05-28T11:26:50.605Z,25.20
2019-05-28T11:29:17.056Z,24.20
2019-05-28T11:31:43.508Z,23.30
2019-05-28T11:34:10.059Z,22.40
2019-05-28T11:36:36.706Z,21.60
2019-05-28T11:39:08.564Z,21.00
2019-05-28T11:41:42.033Z,20.70
2019-05-28T11:44:06.492Z,20.50
2019-05-28T11:46:33.061Z,20.30
2019-05-28T11:48:59.715Z,20.30
2019-05-28T11:51:26.058Z,20.30
2019-05-28T11:53:52.791Z,20.20
2019-05-28T11:56:19.424Z,20.10
2019-05-28T11:58:46.054Z,20.10
2019-05-28T12:01:12.471Z,20.10
2019-05-28T12:03:39.087Z,20.00
2019-05-28T12:06:25.392Z,19.90
2019-05-28T12:08:55.178Z,19.10
2019-05-28T12:11:22.117Z,19.80
2019-05-28T12:13:56.526Z,19.40
2019-05-28T12:16:23.430Z,19.00
2019-05-28T12:18:50.803Z,18.90
2019-05-28T12:21:24.361Z,18.60
2019-05-28T12:23:51.307Z,18.10
2019-05-28T12:26:18.281Z,18.00
2019-05-28T12:28:45.789Z,18.00
2019-05-28T12:31:12.359Z,18.00
2019-05-28T12:33:39.217Z,17.90
2019-05-28T12:36:08.564Z,17.80
2019-05-28T12:38:35.478Z,17.80
2019-05-28T12:41:02.493Z,17.80
2019-05-28T12:43:34.259Z,17.80
2019-05-28T12:46:03.776Z,18.00
2019-05-28T12:48:30.624Z,18.10
2019-05-28T12:51:02.271Z,18.10
2019-05-28T12:53:48.168Z,18.00
2019-05-28T12:56:07.950Z,18.00
2019-05-28T12:58:42.524Z,18.00
2019-05-28T13:01:05.806Z,18.20
2019-05-28T13:03:32.991Z,18.30
2019-05-28T13:06:00.121Z,18.30
2019-05-28T13:08:33.700Z,18.20
2019-05-28T13:11:00.526Z,18.50
2019-05-28T13:13:28.557Z,18.30
2019-05-28T13:15:57.331Z,18.50
2019-05-28T13:18:25.993Z,18.40
2019-05-28T13:20:53.379Z,18.30
2019-05-28T13:23:22.203Z,18.40
2019-05-28T13:25:48.966Z,18.60
2019-05-28T13:28:15.855Z,18.60
2019-05-28T13:30:42.639Z,18.50
2019-05-28T13:33:11.343Z,18.60
2019-05-28T13:35:38.093Z,18.80
2019-05-28T13:38:04.726Z,18.80
2019-05-28T13:40:32.563Z,18.90
2019-05-28T13:42:59.219Z,18.90
2019-05-28T13:45:25.798Z,19.10
2019-05-28T13:47:52.543Z,19.00
2019-05-28T13:50:21.177Z,19.10
2019-05-28T13:52:47.972Z,19.30
2019-05-28T13:55:16.052Z,19.30
2019-05-28T13:57:43.922Z,19.30
2019-05-28T14:00:17.006Z,19.20
2019-05-28T14:02:46.318Z,19.30
2019-05-28T14:05:16.213Z,19.30
2019-05-28T14:07:43.681Z,19.20
2019-05-28T14:10:13.982Z,19.00
2019-05-28T14:12:40.946Z,18.90
2019-05-28T14:15:15.593Z,18.90
2019-05-28T14:17:43.775Z,19.00
2019-05-28T14:20:14.378Z,19.00
2019-05-28T14:22:41.390Z,19.20
2019-05-28T14:25:10.277Z,19.40
2019-05-28T14:27:38.704Z,19.30
2019-05-28T14:30:11.075Z,19.40
2019-05-28T14:32:37.618Z,19.40
2019-05-28T14:35:05.852Z,19.50
2019-05-28T14:37:32.398Z,19.50
2019-05-28T14:39:59.382Z,19.50
2019-05-28T14:42:25.979Z,19.50
2019-05-28T14:44:52.831Z,19.30
2019-05-28T14:47:19.441Z,19.40
2019-05-28T14:49:48.849Z,19.40
2019-05-28T14:52:15.453Z,19.30
2019-05-28T14:54:45.094Z,19.30
2019-05-28T14:57:11.747Z,19.50
2019-05-28T14:59:38.601Z,19.60
2019-05-28T15:02:07.857Z,19.50
2019-05-28T15:04:34.434Z,19.50
2019-05-28T15:07:00.934Z,19.50
2019-05-28T15:09:27.558Z,19.60
2019-05-28T15:11:56.056Z,19.50
2019-05-28T15:14:22.819Z,19.70
2019-05-28T15:16:49.260Z,19.40
2019-05-28T15:19:15.981Z,19.20
2019-05-28T15:21:42.941Z,19.00
2019-05-28T15:24:10.875Z,19.10
2019-05-28T15:26:38.201Z,19.00
2019-05-28T15:29:04.798Z,19.00
2019-05-28T15:31:31.243Z,19.00
2019-05-28T15:33:58.088Z,18.90
2019-05-28T15:36:24.790Z,18.80
2019-05-28T15:38:51.609Z,18.80
2019-05-28T15:41:18.497Z,18.90
2019-05-28T15:43:45.205Z,18.70
2019-05-28T15:46:12.095Z,18.70
2019-05-28T15:48:38.694Z,18.80
2019-05-28T15:51:06.030Z,19.00
2019-05-28T15:53:32.629Z,18.90
2019-05-28T15:56:01.098Z,19.10
2019-05-28T15:58:29.661Z,19.00
2019-05-28T16:00:58.532Z,18.80
2019-05-28T16:03:26.111Z,18.40
2019-05-28T16:05:53.075Z,18.50
2019-05-28T16:08:20.356Z,18.30
2019-05-28T16:10:47.076Z,18.50
2019-05-28T16:13:13.725Z,18.80
2019-05-28T16:15:40.500Z,19.10
2019-05-28T16:18:08.974Z,19.30
2019-05-28T16:20:36.667Z,19.30
2019-05-28T16:23:05.255Z,19.10
2019-05-28T16:25:34.431Z,19.10
2019-05-28T16:28:01.404Z,19.10
2019-05-28T16:30:29.499Z,18.90
2019-05-28T16:32:57.134Z,18.90
2019-05-28T16:35:23.782Z,18.90
2019-05-28T16:37:50.618Z,18.80
2019-05-28T16:40:17.596Z,18.70
2019-05-28T16:42:47.349Z,18.80
2019-05-28T16:45:14.349Z,18.90
2019-05-28T16:47:41.155Z,18.80
2019-05-28T16:50:13.173Z,18.90
2019-05-28T16:52:37.966Z,18.80
2019-05-28T16:55:05.305Z,18.70
2019-05-28T16:57:32.081Z,18.70
2019-05-28T16:59:58.802Z,18.50
2019-05-28T17:02:25.525Z,18.60
2019-05-28T17:04:53.556Z,18.50
2019-05-28T17:07:20.296Z,18.50
2019-05-28T17:09:49.414Z,18.50
2019-05-28T17:12:16.372Z,18.30
2019-05-28T17:14:43.060Z,18.40
2019-05-28T17:17:10.222Z,18.30
2019-05-28T17:19:36.853Z,18.40
2019-05-28T17:22:03.887Z,18.40
2019-05-28T17:24:30.744Z,18.40
2019-05-28T17:26:59.284Z,18.40
2019-05-28T17:29:26.287Z,18.50
2019-05-28T17:31:53.210Z,18.50
2019-05-28T17:34:20.415Z,18.50
2019-05-28T17:36:47.017Z,18.60
2019-05-28T17:39:13.487Z,18.40
2019-05-28T17:41:40.167Z,18.40
2019-05-28T17:44:09.196Z,18.30
2019-05-28T17:46:36.189Z,18.10
2019-05-28T17:49:03.292Z,18.20
2019-05-28T17:51:30.145Z,18.30
2019-05-28T17:53:56.964Z,18.30
2019-05-28T17:56:23.668Z,18.30
2019-05-28T17:58:50.303Z,18.30
2019-05-28T18:01:17.406Z,18.30
2019-05-28T18:03:44.032Z,18.20
2019-05-28T18:06:11.322Z,18.30
2019-05-28T18:08:38.236Z,18.30
2019-05-28T18:11:05.114Z,18.30
2019-05-28T18:13:31.966Z,18.40
2019-05-28T18:15:58.800Z,18.50
2019-05-28T18:18:25.553Z,18.40
2019-05-28T18:20:52.061Z,18.40
2019-05-28T18:23:18.659Z,18.50
2019-05-28T18:25:45.126Z,18.50
2019-05-28T18:28:11.542Z,18.40
2019-05-28T18:30:38.177Z,18.50
2019-05-28T18:33:04.809Z,18.50
2019-05-28T18:35:31.589Z,18.40
2019-05-28T18:38:03.425Z,18.40
2019-05-28T18:40:26.652Z,18.40
2019-05-28T18:42:53.169Z,18.40
2019-05-28T18:45:19.877Z,18.20
2019-05-28T18:47:46.587Z,18.20
2019-05-28T18:50:13.843Z,18.20
2019-05-28T18:52:40.526Z,18.20
2019-05-28T18:55:07.485Z,18.10
2019-05-28T18:57:35.181Z,18.00
2019-05-28T19:00:04.390Z,18.00
2019-05-28T19:02:31.339Z,18.00
2019-05-28T19:04:58.162Z,18.00
2019-05-28T19:07:24.733Z,18.00
2019-05-28T19:09:51.393Z,18.00
2019-05-28T19:12:18.028Z,18.10
2019-05-28T19:14:46.052Z,18.20
2019-05-28T19:17:13.135Z,18.10
2019-05-28T19:19:39.692Z,18.10
2019-05-28T19:22:06.477Z,18.00
2019-05-28T19:24:33.250Z,18.10
2019-05-28T19:26:59.958Z,18.10
2019-05-28T19:29:26.560Z,18.10
2019-05-28T19:31:53.238Z,18.10
2019-05-28T19:34:19.974Z,18.00
2019-05-28T19:36:46.616Z,18.00
2019-05-28T19:39:15.629Z,18.10
2019-05-28T19:41:53.474Z,18.10
2019-05-28T19:44:11.489Z,18.10
2019-05-28T19:46:38.126Z,18.00
2019-05-28T19:49:05.578Z,17.90
2019-05-28T19:51:32.699Z,17.80
2019-05-28T19:53:59.534Z,17.60
2019-05-28T19:56:31.253Z,17.60
2019-05-28T19:58:58.653Z,17.60
2019-05-28T20:01:25.696Z,17.30
2019-05-28T20:03:52.694Z,17.20
2019-05-28T20:06:19.491Z,16.80
2019-05-28T20:08:46.485Z,16.90
2019-05-28T20:11:15.523Z,17.10
2019-05-28T20:13:42.469Z,16.80
2019-05-28T20:16:09.497Z,16.70
2019-05-28T20:18:36.592Z,16.70
2019-05-28T20:21:03.333Z,16.50
2019-05-28T20:23:30.238Z,16.70
2019-05-28T20:25:56.996Z,16.60
2019-05-28T20:28:23.552Z,16.70
2019-05-28T20:30:50.111Z,16.70
2019-05-28T20:33:16.735Z,16.40
2019-05-28T20:35:43.461Z,16.20
2019-05-28T20:38:12.458Z,15.80
2019-05-28T20:40:38.687Z,15.90
2019-05-28T20:43:06.240Z,15.90
2019-05-28T20:45:34.771Z,15.90
2019-05-28T20:48:02.529Z,16.00
2019-05-28T20:50:29.482Z,16.10
2019-05-28T20:52:56.188Z,16.00
2019-05-28T20:55:22.910Z,15.90
2019-05-28T20:57:53.334Z,16.00
2019-05-28T21:00:20.315Z,15.90
2019-05-28T21:02:47.536Z,16.10
2019-05-28T21:05:18.191Z,16.30
2019-05-28T21:07:44.827Z,16.40
2019-05-28T21:10:12.014Z,16.30
2019-05-28T21:12:44.610Z,16.30
2019-05-28T21:15:08.010Z,16.20
2019-05-28T21:17:35.094Z,16.20
2019-05-28T21:20:04.742Z,16.00
2019-05-28T21:22:32.613Z,16.20
2019-05-28T21:25:00.540Z,15.90
2019-05-28T21:27:27.339Z,15.90
2019-05-28T21:29:54.286Z,15.80
2019-05-28T21:32:21.037Z,15.40
2019-05-28T21:34:47.669Z,15.50
2019-05-28T21:37:14.488Z,15.60
2019-05-28T21:39:41.549Z,15.40
2019-05-28T21:42:08.448Z,15.50
2019-05-28T21:44:38.201Z,15.50
2019-05-28T21:47:05.230Z,15.40
2019-05-28T21:49:32.495Z,15.40
2019-05-28T21:51:59.327Z,15.40
2019-05-28T21:54:26.382Z,15.60
2019-05-28T21:56:53.763Z,15.70
2019-05-28T21:59:20.821Z,15.80
2019-05-28T22:01:47.919Z,15.60
2019-05-28T22:04:14.970Z,15.40
2019-05-28T22:06:43.111Z,15.20
2019-05-28T22:09:10.795Z,15.40
2019-05-28T22:11:37.491Z,15.10
2019-05-28T22:14:04.331Z,15.10
2019-05-28T22:16:31.361Z,15.20
2019-05-28T22:18:58.257Z,15.30
2019-05-28T22:21:25.443Z,15.30
2019-05-28T22:23:52.136Z,15.20
2019-05-28T22:26:18.777Z,15.30
2019-05-28T22:28:45.491Z,15.20
2019-05-28T22:31:14.931Z,15.30
2019-05-28T22:33:41.314Z,15.50
2019-05-28T22:36:08.008Z,15.60
2019-05-28T22:38:35.042Z,15.50
2019-05-28T22:41:02.427Z,15.30
2019-05-28T22:43:31.896Z,15.30
2019-05-28T22:45:58.979Z,15.10
2019-05-28T22:48:26.546Z,15.00
2019-05-28T22:50:53.674Z,15.20
2019-05-28T22:53:20.854Z,15.20
2019-05-28T22:55:47.683Z,15.30
2019-05-28T22:58:14.814Z,15.00
2019-05-28T23:00:41.549Z,15.30
2019-05-28T23:03:09.289Z,15.00
2019-05-28T23:05:38.535Z,15.00
2019-05-28T23:08:05.817Z,15.10
2019-05-28T23:10:33.270Z,15.20
2019-05-28T23:13:00.848Z,15.20
2019-05-28T23:15:28.155Z,15.20
2019-05-28T23:17:54.782Z,15.30
2019-05-28T23:20:21.701Z,15.20
2019-05-28T23:22:48.629Z,15.20
2019-05-28T23:25:15.579Z,15.20
2019-05-28T23:27:42.593Z,15.20
2019-05-28T23:30:24.312Z,15.00
2019-05-28T23:32:39.238Z,15.00
2019-05-28T23:35:06.586Z,15.00
2019-05-28T23:37:33.643Z,15.00
2019-05-28T23:40:03.054Z,14.90
2019-05-28T23:42:29.370Z,14.90
2019-05-28T23:44:56.238Z,14.90
2019-05-28T23:47:23.544Z,14.90
2019-05-28T23:49:50.642Z,14.90
2019-05-28T23:52:18.513Z,14.90
2019-05-28T23:54:45.332Z,14.90
2019-05-28T23:57:12.298Z,14.80
2019-05-28T23:59:39.383Z,14.70
